Time;durP1;ratioP1;P1;durP2;ratioP2;P2;SDS_P1;SDS_P2;PMS_P1;PMS_P2;Temp;Humidity;BMP_temperature;BMP_pressure;BME280_temperature;BME280_humidity;BME280_pressure;Samples;Min_cycle;Max_cycle;Signal;HPM_P1;HPM_P2
2022/01/14 00:01:50;;;;;;;14.13;13.53;;;16.30;99.90;;;;;;5034018;28;20913;-48
2022/01/14 00:04:16;;;;;;;13.20;12.70;;;16.30;99.90;;;;;;5034022;28;20441;-52
2022/01/14 00:06:43;;;;;;;13.20;12.70;;;16.30;99.90;;;;;;5052790;28;20449;-50
2022/01/14 00:09:13;;;;;;;14.67;13.97;;;16.30;99.90;;;;;;5053822;28;20825;-49
2022/01/14 00:11:44;;;;;;;13.90;13.40;;;16.30;99.90;;;;;;5053516;28;20531;-50
2022/01/14 00:14:21;;;;;;;15.37;14.67;;;16.30;99.90;;;;;;5053744;28;20936;-47
2022/01/14 00:16:48;;;;;;;14.97;14.30;;;16.30;99.90;;;;;;5034199;28;20539;-49
2022/01/14 00:19:15;;;;;;;14.30;13.73;;;16.20;99.90;;;;;;5033786;28;20480;-49
2022/01/14 00:21:44;;;;;;;14.37;13.73;;;16.30;99.90;;;;;;5033619;28;20452;-47
2022/01/14 00:24:23;;;;;;;13.57;13.07;;;16.20;99.90;;;;;;5033667;28;20445;-47
2022/01/14 00:32:24;;;;;;;13.00;12.40;;;16.30;99.90;;;;;;5053276;28;20497;-49
2022/01/14 00:34:51;;;;;;;14.90;14.20;;;16.20;99.90;;;;;;5050651;28;20510;-53
2022/01/14 00:37:18;;;;;;;14.10;13.20;;;16.20;99.90;;;;;;5033403;28;20457;-48
2022/01/14 00:39:46;;;;;;;14.40;13.77;;;16.20;99.90;;;;;;5033164;28;20479;-46
2022/01/14 00:42:14;;;;;;;13.47;12.87;;;16.20;99.90;;;;;;5033089;28;20507;-49
2022/01/14 00:44:41;;;;;;;13.50;12.90;;;16.20;99.90;;;;;;5033990;28;20464;-49
2022/01/14 00:47:08;;;;;;;14.03;13.43;;;16.20;99.90;;;;;;5052041;28;20812;-47
2022/01/14 00:49:35;;;;;;;14.20;13.60;;;16.20;99.90;;;;;;5052919;28;20843;-48
2022/01/14 00:52:02;;;;;;;14.10;13.40;;;16.20;99.90;;;;;;5052738;28;20453;-49
2022/01/14 00:54:28;;;;;;;14.20;13.60;;;16.10;99.90;;;;;;5052897;28;20476;-52
2022/01/14 00:59:43;;;;;;;13.90;13.30;;;16.20;99.90;;;;;;5027538;28;20540;-49
2022/01/14 01:02:10;;;;;;;13.40;12.90;;;16.20;99.90;;;;;;5032669;28;20437;-50
2022/01/14 01:04:39;;;;;;;12.73;12.33;;;16.20;99.90;;;;;;5046608;28;20436;-48
2022/01/14 01:07:08;;;;;;;13.30;12.90;;;16.10;99.90;;;;;;5052653;28;20448;-51
2022/01/14 01:09:37;;;;;;;13.47;12.93;;;16.10;99.90;;;;;;5052528;28;21045;-49
2022/01/14 01:12:10;;;;;;;13.57;13.00;;;16.10;99.90;;;;;;5052393;28;20498;-48
2022/01/14 01:14:44;;;;;;;13.90;13.30;;;16.10;99.90;;;;;;5038603;28;20485;-48
2022/01/14 01:17:12;;;;;;;13.60;13.07;;;16.10;99.90;;;;;;5032757;28;20449;-49
2022/01/14 01:19:39;;;;;;;13.50;13.00;;;16.10;99.90;;;;;;5032482;28;20833;-47
2022/01/14 01:22:06;;;;;;;14.50;13.80;;;16.10;99.90;;;;;;5038863;28;20805;-49
2022/01/14 01:24:33;;;;;;;14.83;13.93;;;16.10;99.90;;;;;;5052405;28;20436;-48
2022/01/14 01:27:04;;;;;;;13.70;13.10;;;16.10;99.90;;;;;;5052289;28;20463;-49
2022/01/14 01:29:47;;;;;;;13.73;13.20;;;16.10;99.90;;;;;;5052300;28;20470;-47
2022/01/14 01:32:14;;;;;;;13.10;12.60;;;16.00;99.90;;;;;;5044605;28;20449;-48
2022/01/14 01:34:40;;;;;;;13.40;12.90;;;16.00;99.90;;;;;;5032300;28;20449;-48
2022/01/14 01:37:07;;;;;;;13.63;13.13;;;16.00;99.90;;;;;;5032375;28;20871;-48
2022/01/14 01:39:35;;;;;;;14.37;13.77;;;16.00;99.90;;;;;;5032103;28;20465;-48
2022/01/14 01:42:06;;;;;;;13.70;13.10;;;16.00;99.90;;;;;;5036988;28;21020;-49
2022/01/14 01:44:35;;;;;;;13.73;13.17;;;16.00;99.90;;;;;;5051661;28;20856;-53
2022/01/14 01:47:02;;;;;;;14.27;13.67;;;16.00;99.90;;;;;;5051952;28;20964;-49
2022/01/14 01:49:31;;;;;;;14.57;13.97;;;16.00;99.70;;;;;;5092750;22;20503;-51
2022/01/14 01:51:58;;;;;;;13.43;12.93;;;16.00;99.70;;;;;;5042778;28;20473;-52
2022/01/14 01:54:26;;;;;;;14.23;13.63;;;16.00;99.70;;;;;;5051929;28;20522;-55
2022/01/14 01:56:53;;;;;;;13.50;12.80;;;16.00;99.80;;;;;;5051975;28;20444;-52
2022/01/14 01:59:22;;;;;;;13.67;13.17;;;16.00;99.60;;;;;;5051752;28;20475;-52
2022/01/14 02:01:51;;;;;;;13.33;12.83;;;16.00;99.60;;;;;;5049464;28;20453;-51
2022/01/14 02:04:18;;;;;;;13.43;12.93;;;16.00;99.60;;;;;;5031906;28;20507;-51
2022/01/14 02:06:45;;;;;;;13.17;12.67;;;16.00;99.70;;;;;;5031984;28;20446;-50
2022/01/14 02:09:12;;;;;;;13.97;13.17;;;16.00;99.60;;;;;;5031894;28;20468;-49
2022/01/14 02:11:39;;;;;;;13.80;13.30;;;15.90;99.60;;;;;;5045075;28;20471;-51
2022/01/14 02:14:14;;;;;;;13.63;13.10;;;16.00;99.60;;;;;;5051722;28;20440;-50
2022/01/14 02:19:27;;;;;;;13.33;12.90;;;16.00;99.40;;;;;;5051114;28;21480;-51
2022/01/14 02:22:10;;;;;;;13.30;12.80;;;15.90;99.30;;;;;;5034177;28;20449;-50
2022/01/14 02:27:31;;;;;;;12.83;12.43;;;15.90;99.30;;;;;;4995791;28;20440;-54
2022/01/14 02:29:57;;;;;;;13.50;13.00;;;15.90;99.40;;;;;;5032433;28;20479;-52
2022/01/14 02:32:24;;;;;;;13.97;13.17;;;15.90;99.20;;;;;;5051415;28;20440;-52
2022/01/14 02:34:51;;;;;;;12.87;12.40;;;15.90;99.20;;;;;;5051485;28;20640;-52
2022/01/14 02:37:20;;;;;;;13.73;13.17;;;15.90;99.20;;;;;;5051409;28;20444;-51
2022/01/14 02:39:47;;;;;;;13.50;13.00;;;15.90;99.00;;;;;;5051707;28;20468;-54
2022/01/14 02:42:14;;;;;;;14.30;13.70;;;15.90;98.90;;;;;;5050809;28;20539;-50
2022/01/14 02:44:41;;;;;;;13.30;12.80;;;15.80;98.80;;;;;;5051356;28;20523;-52
2022/01/14 02:47:07;;;;;;;13.00;12.50;;;15.90;98.90;;;;;;5051630;28;20447;-52
2022/01/14 02:49:37;;;;;;;13.20;12.70;;;15.90;98.90;;;;;;5051279;28;20482;-50
2022/01/14 02:52:07;;;;;;;13.67;13.17;;;15.90;98.90;;;;;;5049349;28;20449;-51
2022/01/14 02:54:41;;;;;;;14.20;13.50;;;15.80;98.90;;;;;;5051205;28;20448;-54
2022/01/14 02:57:09;;;;;;;13.07;12.57;;;15.80;98.90;;;;;;5051419;28;20448;-52
2022/01/14 02:59:39;;;;;;;13.93;13.37;;;15.80;99.00;;;;;;5044882;28;20527;-52
2022/01/14 03:02:09;;;;;;;13.50;13.00;;;15.80;99.00;;;;;;5031326;28;20480;-51
2022/01/14 03:04:39;;;;;;;12.83;12.33;;;15.80;99.10;;;;;;5031314;28;20481;-50
2022/01/14 03:07:07;;;;;;;13.13;12.60;;;15.80;99.00;;;;;;5031569;28;20456;-50
2022/01/14 03:09:36;;;;;;;14.63;14.00;;;15.80;99.00;;;;;;5031643;28;20472;-54
2022/01/14 03:12:04;;;;;;;12.90;12.40;;;15.70;99.10;;;;;;5034871;28;20442;-52
2022/01/14 03:14:31;;;;;;;14.20;13.50;;;15.80;99.00;;;;;;5034940;28;20441;-53
2022/01/14 03:17:00;;;;;;;14.43;13.83;;;15.80;99.00;;;;;;5035020;28;20556;-56
2022/01/14 03:19:27;;;;;;;14.87;14.27;;;15.70;98.90;;;;;;5038999;28;20506;-51
2022/01/14 03:22:04;;;;;;;13.97;13.37;;;15.70;98.90;;;;;;5054836;28;20799;-52
2022/01/14 03:27:13;;;;;;;14.73;14.03;;;15.70;98.80;;;;;;5053958;28;20519;-51
2022/01/14 03:29:40;;;;;;;13.87;13.37;;;15.80;98.80;;;;;;5035058;28;20911;-52
2022/01/14 03:32:08;;;;;;;12.97;12.47;;;15.80;98.80;;;;;;5034616;28;20452;-53
2022/01/14 03:34:35;;;;;;;14.00;13.50;;;15.80;98.70;;;;;;5034768;28;20454;-50
2022/01/14 03:37:02;;;;;;;14.00;13.40;;;15.70;98.90;;;;;;5034532;28;20980;-51
2022/01/14 03:39:29;;;;;;;13.53;12.90;;;15.80;98.80;;;;;;5052238;28;20467;-51
2022/01/14 03:41:56;;;;;;;13.67;13.07;;;15.70;99.10;;;;;;5054391;28;20494;-51
2022/01/14 03:44:24;;;;;;;14.00;13.20;;;15.70;99.20;;;;;;5054642;28;20480;-55
2022/01/14 03:46:50;;;;;;;14.63;13.93;;;15.70;99.90;;;;;;5051004;28;20444;-54
2022/01/14 03:49:17;;;;;;;13.43;12.70;;;15.90;99.90;;;;;;5051352;28;20483;-51
2022/01/14 03:51:44;;;;;;;14.57;13.77;;;16.10;99.90;;;;;;5054010;28;20451;-51
2022/01/14 03:54:11;;;;;;;13.30;12.70;;;16.00;99.90;;;;;;5054134;28;20448;-54
2022/01/14 03:56:38;;;;;;;13.87;13.17;;;15.80;99.90;;;;;;5054165;28;20833;-55
2022/01/14 03:59:05;;;;;;;14.40;13.37;;;15.80;99.90;;;;;;5041114;28;20469;-54
2022/01/14 04:01:33;;;;;;;14.57;13.87;;;15.80;99.90;;;;;;5036046;28;20445;-49
2022/01/14 04:04:00;;;;;;;14.20;13.60;;;15.80;99.90;;;;;;5034088;28;20456;-53
2022/01/14 04:06:28;;;;;;;13.70;13.10;;;15.80;99.90;;;;;;5034042;28;20445;-51
2022/01/14 04:08:54;;;;;;;13.63;13.03;;;15.80;99.90;;;;;;5034266;28;20475;-55
2022/01/14 04:11:22;;;;;;;15.10;14.40;;;15.80;99.90;;;;;;5034269;28;20455;-51
2022/01/14 04:13:52;;;;;;;14.70;13.73;;;15.80;99.90;;;;;;5033982;28;20946;-51
2022/01/14 04:16:19;;;;;;;15.13;14.53;;;15.80;99.90;;;;;;5037144;28;20448;-51
2022/01/14 04:18:49;;;;;;;16.33;15.43;;;15.80;99.90;;;;;;5053712;28;21012;-54
2022/01/14 04:21:16;;;;;;;13.43;12.83;;;15.80;99.90;;;;;;5053765;28;20448;-55
2022/01/14 04:23:43;;;;;;;14.53;13.83;;;15.80;99.90;;;;;;5053459;28;20471;-56
2022/01/14 04:26:10;;;;;;;13.80;13.20;;;15.80;99.90;;;;;;5051365;28;20487;-52
2022/01/14 04:28:37;;;;;;;14.60;13.90;;;15.80;99.90;;;;;;5033640;28;20565;-55
2022/01/14 04:31:05;;;;;;;13.13;12.53;;;15.80;99.90;;;;;;5033768;28;20449;-57
2022/01/14 04:33:34;;;;;;;13.53;13.03;;;15.80;99.90;;;;;;5033583;28;20460;-51
2022/01/14 04:36:03;;;;;;;13.87;13.07;;;15.80;99.90;;;;;;5034079;28;20441;-55
2022/01/14 04:38:31;;;;;;;13.70;13.10;;;15.80;99.90;;;;;;5044504;28;20451;-51
2022/01/14 04:40:58;;;;;;;14.40;13.50;;;15.80;99.90;;;;;;5033690;28;20930;-52
2022/01/14 04:43:25;;;;;;;14.10;13.37;;;15.70;99.90;;;;;;5033332;28;20441;-53
2022/01/14 04:46:13;;;;;;;13.93;13.30;;;15.70;99.90;;;;;;5033383;28;20841;-55
2022/01/14 04:48:40;;;;;;;13.33;12.73;;;15.70;99.90;;;;;;5044805;28;20880;-50
2022/01/14 04:51:11;;;;;;;13.17;12.57;;;15.70;99.90;;;;;;5053181;28;20510;-51
2022/01/14 04:53:38;;;;;;;12.90;12.50;;;15.70;99.90;;;;;;5053083;28;20440;-51
2022/01/14 04:56:05;;;;;;;14.50;13.80;;;15.70;99.90;;;;;;5053119;28;20447;-54
2022/01/14 04:58:33;;;;;;;14.67;13.97;;;15.70;99.90;;;;;;5041875;28;20457;-51
2022/01/14 05:01:00;;;;;;;13.57;12.97;;;15.70;99.90;;;;;;5033231;28;20441;-52
2022/01/14 05:03:26;;;;;;;14.97;14.37;;;15.70;99.90;;;;;;5032904;28;20472;-56
2022/01/14 05:05:57;;;;;;;13.70;13.10;;;15.70;99.90;;;;;;5032967;28;20838;-51
2022/01/14 05:08:30;;;;;;;14.50;13.90;;;15.70;99.90;;;;;;5042055;28;20448;-51
2022/01/14 05:11:21;;;;;;;14.73;14.00;;;15.70;99.90;;;;;;5052813;28;20913;-54
2022/01/14 05:13:48;;;;;;;14.20;13.70;;;15.70;99.90;;;;;;5052831;28;20448;-53
2022/01/14 05:16:15;;;;;;;15.03;14.20;;;15.60;99.90;;;;;;5052855;28;20773;-57
2022/01/14 05:18:42;;;;;;;15.27;14.57;;;15.60;99.90;;;;;;5040525;28;20477;-54
2022/01/14 05:21:09;;;;;;;15.20;14.50;;;15.70;99.90;;;;;;5032953;28;20462;-56
2022/01/14 05:23:37;;;;;;;16.20;15.50;;;15.70;99.90;;;;;;5032374;28;20452;-52
2022/01/14 05:26:04;;;;;;;15.47;14.77;;;15.70;99.90;;;;;;5032696;28;20488;-51
2022/01/14 05:28:31;;;;;;;15.13;14.43;;;15.60;99.90;;;;;;5042141;28;20521;-53
2022/01/14 05:30:57;;;;;;;14.97;14.37;;;15.70;99.90;;;;;;5052408;28;20474;-51
2022/01/14 05:33:24;;;;;;;14.50;13.90;;;15.70;99.90;;;;;;5051616;28;20539;-51
2022/01/14 05:35:51;;;;;;;14.63;14.03;;;15.60;99.90;;;;;;5052404;28;20452;-51
2022/01/14 05:38:17;;;;;;;15.03;14.33;;;15.60;99.90;;;;;;5044242;28;20445;-50
2022/01/14 05:40:45;;;;;;;15.20;14.47;;;15.60;99.90;;;;;;5032465;28;20445;-51
2022/01/14 05:43:12;;;;;;;14.83;14.00;;;15.60;99.90;;;;;;5032199;28;20455;-54
2022/01/14 05:45:39;;;;;;;14.90;14.20;;;15.60;99.90;;;;;;5032219;28;20492;-55
2022/01/14 05:48:06;;;;;;;14.13;13.43;;;15.60;99.90;;;;;;5032188;28;20449;-55
2022/01/14 05:50:32;;;;;;;14.00;13.40;;;15.70;99.90;;;;;;5032122;28;20488;-52
2022/01/14 05:52:59;;;;;;;15.33;14.43;;;16.80;99.90;;;;;;5031990;28;20449;-51
2022/01/14 05:55:26;;;;;;;15.33;14.73;;;17.20;97.80;;;;;;5032120;28;20448;-52
2022/01/14 05:57:54;;;;;;;15.50;14.60;;;17.30;96.60;;;;;;5034519;28;20448;-50
2022/01/14 06:00:22;;;;;;;16.93;16.03;;;17.50;95.60;;;;;;5032042;28;20496;-52
2022/01/14 06:02:50;;;;;;;15.90;15.20;;;17.70;94.50;;;;;;5031838;28;20453;-51
2022/01/14 06:05:18;;;;;;;16.43;15.70;;;17.90;93.50;;;;;;5032197;28;20492;-51
2022/01/14 06:07:44;;;;;;;16.13;15.53;;;18.00;92.40;;;;;;5032572;28;20938;-51
2022/01/14 06:10:12;;;;;;;15.67;15.00;;;18.10;91.90;;;;;;5032044;28;20472;-53
2022/01/14 06:12:39;;;;;;;16.10;15.40;;;18.10;91.20;;;;;;5031650;28;20449;-51
2022/01/14 06:15:08;;;;;;;16.07;15.47;;;18.10;90.80;;;;;;5032011;28;20864;-51
2022/01/14 06:17:34;;;;;;;16.17;15.57;;;18.20;90.20;;;;;;5032234;28;20484;-51
2022/01/14 06:20:03;;;;;;;17.07;16.27;;;18.20;89.20;;;;;;5051551;28;20464;-53
2022/01/14 06:22:29;;;;;;;16.83;16.13;;;18.20;88.40;;;;;;5051547;28;20567;-52
2022/01/14 06:24:57;;;;;;;16.87;16.13;;;18.20;87.30;;;;;;5051487;28;20475;-51
2022/01/14 06:27:24;;;;;;;16.30;15.70;;;18.20;86.20;;;;;;5051032;28;20452;-57
2022/01/14 06:29:50;;;;;;;16.60;15.90;;;18.20;85.50;;;;;;5051104;28;20463;-51
2022/01/14 06:32:18;;;;;;;16.83;16.13;;;18.30;84.70;;;;;;5051192;28;20451;-51
2022/01/14 06:34:45;;;;;;;16.37;15.67;;;18.20;83.70;;;;;;5051649;28;20448;-54
2022/01/14 06:37:12;;;;;;;16.50;15.80;;;18.30;83.30;;;;;;5040384;28;21001;-52
2022/01/14 06:39:38;;;;;;;15.40;14.80;;;18.20;82.60;;;;;;5031460;28;20827;-51
2022/01/14 06:42:06;;;;;;;15.67;14.87;;;18.20;82.10;;;;;;5031379;28;20876;-55
2022/01/14 06:44:33;;;;;;;15.90;15.27;;;18.20;81.40;;;;;;5031818;28;20452;-50
2022/01/14 06:46:59;;;;;;;15.73;15.13;;;18.20;81.00;;;;;;5044139;28;20584;-51
2022/01/14 06:49:28;;;;;;;16.03;15.33;;;18.20;80.50;;;;;;5055293;28;20484;-52
2022/01/14 06:51:54;;;;;;;16.57;15.90;;;18.20;80.10;;;;;;5055189;28;20479;-54
2022/01/14 06:54:21;;;;;;;17.43;16.73;;;18.20;79.70;;;;;;5055454;28;20945;-51
2022/01/14 06:56:48;;;;;;;17.83;17.03;;;18.20;79.40;;;;;;5048094;28;20448;-50
2022/01/14 06:59:14;;;;;;;16.70;16.00;;;18.20;79.30;;;;;;5035340;28;20476;-53
2022/01/14 07:01:41;;;;;;;16.57;15.87;;;18.10;78.90;;;;;;5035022;28;20445;-52
2022/01/14 07:04:08;;;;;;;17.00;16.30;;;18.10;78.80;;;;;;5035324;28;20945;-52
2022/01/14 07:06:36;;;;;;;17.00;16.30;;;18.10;78.60;;;;;;5040095;28;20476;-55
2022/01/14 07:09:03;;;;;;;15.33;14.73;;;18.10;78.70;;;;;;5055099;28;20475;-54
2022/01/14 07:11:35;;;;;;;16.30;15.50;;;18.10;78.70;;;;;;5055008;28;20452;-51
2022/01/14 07:14:02;;;;;;;15.00;14.13;;;18.10;78.60;;;;;;5055050;28;21192;-52
2022/01/14 07:16:29;;;;;;;14.40;13.80;;;18.00;78.40;;;;;;5050564;28;20460;-53
2022/01/14 07:18:55;;;;;;;14.40;13.80;;;18.00;78.50;;;;;;5034925;28;20534;-53
2022/01/14 07:21:22;;;;;;;13.90;13.40;;;17.90;78.30;;;;;;5034934;28;20445;-53
2022/01/14 07:23:50;;;;;;;13.30;12.80;;;17.90;78.20;;;;;;5034917;28;20445;-51
2022/01/14 07:26:17;;;;;;;14.80;14.10;;;17.90;78.30;;;;;;5036814;28;20488;-50
2022/01/14 07:28:44;;;;;;;14.03;13.43;;;17.90;78.30;;;;;;5054908;28;20472;-51
2022/01/14 07:31:11;;;;;;;13.77;13.17;;;17.80;78.20;;;;;;5054827;28;20917;-52
2022/01/14 07:33:37;;;;;;;14.57;13.97;;;17.80;78.30;;;;;;5054586;28;20455;-53
2022/01/14 07:36:04;;;;;;;13.80;13.20;;;17.80;78.20;;;;;;5040502;28;20441;-52
2022/01/14 07:38:31;;;;;;;15.20;14.50;;;17.80;78.00;;;;;;5034627;28;20839;-56
2022/01/14 07:40:59;;;;;;;12.40;11.90;;;17.80;78.00;;;;;;5034645;28;20448;-52
2022/01/14 07:43:26;;;;;;;12.97;12.37;;;17.80;78.00;;;;;;5034406;28;20453;-51
2022/01/14 07:45:53;;;;;;;12.60;12.00;;;17.70;78.00;;;;;;5046395;28;20475;-51
2022/01/14 07:48:19;;;;;;;14.13;13.63;;;17.60;78.30;;;;;;5054275;28;21006;-53
2022/01/14 07:50:46;;;;;;;14.80;14.10;;;17.60;78.50;;;;;;5054844;28;20929;-52
2022/01/14 07:53:13;;;;;;;14.50;13.90;;;17.60;78.60;;;;;;5054193;28;20444;-52
2022/01/14 07:55:40;;;;;;;13.83;13.23;;;17.50;78.80;;;;;;5043371;28;20445;-53
2022/01/14 07:58:08;;;;;;;13.77;13.27;;;17.40;79.00;;;;;;5033966;28;20453;-53
2022/01/14 08:00:36;;;;;;;15.50;14.73;;;17.40;79.60;;;;;;5034138;28;20469;-53
2022/01/14 08:03:03;;;;;;;14.97;14.30;;;17.40;80.10;;;;;;5034086;28;20981;-51
2022/01/14 08:05:30;;;;;;;14.87;14.27;;;17.30;80.10;;;;;;5034067;28;20485;-54
2022/01/14 08:08:02;;;;;;;15.40;14.60;;;17.30;80.70;;;;;;5035085;28;20448;-52
2022/01/14 08:10:29;;;;;;;17.20;16.40;;;17.20;81.00;;;;;;5054062;28;20502;-53
2022/01/14 08:12:56;;;;;;;16.40;15.60;;;17.20;81.20;;;;;;5053852;28;20848;-52
2022/01/14 08:15:24;;;;;;;15.77;15.10;;;17.10;81.40;;;;;;5053940;28;20448;-50
2022/01/14 08:17:50;;;;;;;16.20;15.23;;;17.10;81.90;;;;;;5053467;28;20468;-51
2022/01/14 08:20:17;;;;;;;14.50;13.90;;;17.10;81.50;;;;;;5033887;28;20479;-51
2022/01/14 08:22:44;;;;;;;14.57;14.07;;;17.10;81.90;;;;;;5053607;28;20980;-49
2022/01/14 08:25:11;;;;;;;16.10;15.40;;;17.10;82.20;;;;;;5053513;28;20456;-51
2022/01/14 08:27:38;;;;;;;16.70;15.80;;;17.10;82.20;;;;;;5053722;28;20509;-49
2022/01/14 08:30:06;;;;;;;14.13;13.53;;;17.00;81.90;;;;;;5036062;28;20472;-49
2022/01/14 08:32:34;;;;;;;15.53;14.83;;;17.00;82.50;;;;;;5033382;28;20860;-53
2022/01/14 08:35:01;;;;;;;15.77;14.97;;;17.00;82.30;;;;;;5033669;28;20440;-55
2022/01/14 08:37:28;;;;;;;15.77;15.07;;;17.00;82.50;;;;;;5033771;28;20440;-50
2022/01/14 08:39:55;;;;;;;14.57;13.97;;;17.00;82.40;;;;;;5052470;28;20502;-53
2022/01/14 08:42:22;;;;;;;16.27;15.10;;;17.00;82.90;;;;;;5052992;28;20460;-50
2022/01/14 08:44:48;;;;;;;15.33;14.63;;;17.00;83.20;;;;;;5053399;28;20452;-53
2022/01/14 08:47:15;;;;;;;14.70;14.07;;;17.00;83.90;;;;;;5053235;28;20833;-55
2022/01/14 08:49:44;;;;;;;14.70;14.10;;;17.00;83.20;;;;;;5035545;28;20490;-54
2022/01/14 08:52:13;;;;;;;14.80;14.20;;;16.90;83.40;;;;;;5033003;28;20448;-51
2022/01/14 08:54:40;;;;;;;13.40;12.90;;;17.00;84.10;;;;;;5033124;28;20453;-54
2022/01/14 08:57:07;;;;;;;14.03;13.43;;;16.90;83.80;;;;;;5033117;28;20445;-49
2022/01/14 08:59:34;;;;;;;14.60;14.00;;;16.90;84.00;;;;;;5050938;28;20467;-49
2022/01/14 09:02:01;;;;;;;14.60;13.90;;;17.00;84.20;;;;;;5052869;28;20535;-49
2022/01/14 09:04:28;;;;;;;15.07;14.27;;;16.90;83.90;;;;;;5052832;28;20793;-52
2022/01/14 09:06:56;;;;;;;14.43;13.83;;;16.90;84.00;;;;;;5052260;28;20993;-54
2022/01/14 09:09:23;;;;;;;16.17;15.47;;;16.90;85.00;;;;;;5035546;28;21141;-52
2022/01/14 09:11:50;;;;;;;14.80;14.20;;;16.90;84.50;;;;;;5032866;28;20815;-54
2022/01/14 09:14:18;;;;;;;15.27;14.67;;;16.90;84.30;;;;;;5032864;28;20449;-55
2022/01/14 09:16:45;;;;;;;15.30;14.67;;;16.90;83.90;;;;;;5033010;28;20445;-48
2022/01/14 09:19:12;;;;;;;15.57;14.97;;;16.90;84.10;;;;;;5056653;28;20468;-49
2022/01/14 09:21:38;;;;;;;16.03;15.33;;;17.00;84.50;;;;;;5036701;28;20465;-53
2022/01/14 09:24:08;;;;;;;14.50;14.00;;;17.00;84.30;;;;;;5032571;28;20450;-49
2022/01/14 09:26:38;;;;;;;15.10;14.50;;;17.00;84.50;;;;;;5032541;28;20485;-49
2022/01/14 09:29:07;;;;;;;13.70;13.20;;;17.00;84.70;;;;;;5046467;28;20500;-49
2022/01/14 09:31:34;;;;;;;14.87;14.17;;;17.10;84.50;;;;;;5052429;28;20934;-49
2022/01/14 09:34:01;;;;;;;14.80;14.20;;;17.10;84.40;;;;;;5052354;28;20844;-51
2022/01/14 09:36:28;;;;;;;14.67;14.10;;;17.00;84.20;;;;;;5045769;28;20441;-49
2022/01/14 09:38:54;;;;;;;14.17;13.67;;;17.00;84.30;;;;;;5032295;28;20464;-49
2022/01/14 09:41:22;;;;;;;14.90;14.20;;;17.00;84.40;;;;;;5032215;28;20872;-52
2022/01/14 09:43:49;;;;;;;14.67;14.07;;;17.00;84.30;;;;;;5031925;28;20449;-51
2022/01/14 09:46:16;;;;;;;14.57;14.07;;;17.00;84.40;;;;;;5036549;28;20472;-49
2022/01/14 09:48:43;;;;;;;14.47;13.87;;;17.00;84.50;;;;;;5051825;28;20480;-51
2022/01/14 09:51:10;;;;;;;15.17;14.57;;;17.00;84.30;;;;;;5052263;28;20875;-51
2022/01/14 09:53:37;;;;;;;15.40;14.80;;;17.00;83.90;;;;;;5051993;28;20447;-55
2022/01/14 09:56:04;;;;;;;14.83;14.17;;;17.00;84.10;;;;;;5051369;28;20440;-54
2022/01/14 09:58:36;;;;;;;14.70;14.00;;;17.00;84.10;;;;;;5051726;28;20807;-54
2022/01/14 10:01:08;;;;;;;16.10;15.40;;;17.00;84.10;;;;;;5051996;28;20972;-53
2022/01/14 10:03:34;;;;;;;15.43;14.83;;;16.90;84.10;;;;;;5044230;28;20456;-50
2022/01/14 10:06:01;;;;;;;15.13;14.43;;;17.00;84.70;;;;;;5034464;28;20484;-51
2022/01/14 10:08:29;;;;;;;15.10;14.40;;;17.00;85.20;;;;;;5020361;28;21082;-53
2022/01/14 10:10:59;;;;;;;15.43;14.73;;;17.00;85.90;;;;;;5020214;28;20923;-52
2022/01/14 10:13:28;;;;;;;14.23;13.70;;;17.10;87.00;;;;;;5020198;28;20456;-52
2022/01/14 10:16:05;;;;;;;14.87;14.17;;;17.10;88.40;;;;;;5021811;28;20554;-51
2022/01/14 10:18:33;;;;;;;14.90;14.27;;;17.10;90.20;;;;;;5039426;28;20962;-50
2022/01/14 10:21:01;;;;;;;14.50;13.90;;;17.10;90.20;;;;;;5039675;28;20459;-51
2022/01/14 10:23:47;;;;;;;15.37;14.77;;;17.20;90.30;;;;;;5039481;28;20976;-52
2022/01/14 10:26:15;;;;;;;15.33;14.63;;;17.10;90.10;;;;;;5035230;28;20938;-54
2022/01/14 10:28:45;;;;;;;15.33;14.63;;;17.20;90.00;;;;;;5026408;28;20929;-54
2022/01/14 10:31:14;;;;;;;14.97;14.40;;;17.20;89.60;;;;;;5039245;28;20460;-52
2022/01/14 10:33:41;;;;;;;14.37;13.77;;;17.20;89.60;;;;;;5039298;28;20444;-53
2022/01/14 10:36:08;;;;;;;14.80;14.20;;;17.30;89.60;;;;;;5039250;28;20479;-52
2022/01/14 10:38:40;;;;;;;14.40;13.90;;;17.30;89.40;;;;;;5034152;28;20453;-55
2022/01/14 10:41:09;;;;;;;14.93;14.33;;;17.30;88.90;;;;;;5019709;28;20449;-55
2022/01/14 10:43:37;;;;;;;16.07;15.37;;;17.30;88.70;;;;;;5019588;28;20567;-51
2022/01/14 10:46:07;;;;;;;16.00;15.20;;;17.30;87.40;;;;;;5019283;28;20452;-51
2022/01/14 10:48:37;;;;;;;15.53;14.73;;;17.30;87.30;;;;;;5023864;28;20480;-52
2022/01/14 10:51:06;;;;;;;15.07;14.37;;;17.40;87.30;;;;;;5039358;28;20522;-52
2022/01/14 10:53:35;;;;;;;15.10;14.30;;;17.40;87.00;;;;;;5039069;28;20451;-49
2022/01/14 10:56:04;;;;;;;15.57;14.87;;;17.40;86.60;;;;;;5043432;28;20455;-49
2022/01/14 10:58:33;;;;;;;15.03;14.33;;;17.40;85.20;;;;;;5047191;28;20846;-53
2022/01/14 11:01:04;;;;;;;15.10;14.40;;;17.40;84.80;;;;;;5031535;28;20805;-49
2022/01/14 11:03:37;;;;;;;15.20;14.30;;;17.40;88.10;;;;;;5031229;28;20444;-50
2022/01/14 11:06:19;;;;;;;13.20;12.70;;;17.50;90.20;;;;;;5031321;28;20452;-49
2022/01/14 11:08:47;;;;;;;16.40;15.70;;;17.50;91.00;;;;;;5036383;28;20871;-50
2022/01/14 11:11:15;;;;;;;14.77;14.13;;;17.50;92.20;;;;;;5049073;28;20436;-54
2022/01/14 11:13:42;;;;;;;15.00;14.40;;;17.50;94.50;;;;;;5050801;28;20440;-53
2022/01/14 11:16:09;;;;;;;14.57;13.97;;;17.40;95.70;;;;;;5051284;28;20779;-49
2022/01/14 11:18:38;;;;;;;14.53;13.93;;;17.40;97.50;;;;;;5042763;28;20468;-50
2022/01/14 11:23:49;;;;;;;15.93;15.13;;;17.50;99.90;;;;;;5030954;28;20424;-50
2022/01/14 11:26:20;;;;;;;15.17;14.17;;;17.60;99.90;;;;;;5030995;28;20448;-50
2022/01/14 11:28:47;;;;;;;16.20;15.43;;;17.60;99.90;;;;;;5040090;28;20479;-51
2022/01/14 11:31:28;;;;;;;14.80;14.00;;;17.70;99.90;;;;;;5042033;28;20448;-55
2022/01/14 11:33:57;;;;;;;15.40;14.60;;;17.70;99.90;;;;;;5054611;28;20803;-50
2022/01/14 11:36:24;;;;;;;14.93;13.93;;;17.70;99.90;;;;;;5054561;28;20440;-48
2022/01/14 11:38:51;;;;;;;14.00;13.23;;;17.70;99.60;;;;;;5053437;28;20436;-52
2022/01/14 11:41:20;;;;;;;14.27;13.63;;;17.70;99.80;;;;;;5047647;28;20455;-52
2022/01/14 11:43:50;;;;;;;15.57;14.97;;;17.70;99.50;;;;;;5046112;28;20452;-49
2022/01/14 11:46:43;;;;;;;15.50;14.80;;;17.60;99.10;;;;;;5034381;28;20539;-49
2022/01/14 11:49:34;;;;;;;15.77;14.93;;;17.60;98.80;;;;;;5035072;28;20488;-50
2022/01/14 11:52:03;;;;;;;15.50;14.90;;;17.60;98.30;;;;;;5014536;28;20452;-49
2022/01/14 11:54:44;;;;;;;15.80;15.10;;;17.60;98.00;;;;;;5014451;28;20446;-49
2022/01/14 11:57:13;;;;;;;15.50;14.80;;;17.60;97.70;;;;;;5014431;28;20440;-53
2022/01/14 11:59:46;;;;;;;15.73;14.93;;;17.60;97.40;;;;;;5016564;28;20462;-50
2022/01/14 12:02:33;;;;;;;14.77;14.10;;;17.60;97.20;;;;;;5053840;28;20448;-49
2022/01/14 12:05:21;;;;;;;14.70;13.80;;;17.60;97.10;;;;;;5053932;28;20976;-53
2022/01/14 12:08:15;;;;;;;15.20;14.53;;;17.70;96.80;;;;;;5053860;28;20484;-49
2022/01/14 12:10:43;;;;;;;15.87;14.93;;;17.70;96.60;;;;;;5037809;28;20475;-49
2022/01/14 12:13:38;;;;;;;15.13;14.43;;;17.70;96.50;;;;;;5033803;28;20449;-50
2022/01/14 12:16:07;;;;;;;13.90;13.30;;;17.70;96.30;;;;;;5033946;28;20457;-50
2022/01/14 12:19:21;;;;;;;14.33;13.60;;;17.70;96.30;;;;;;5033699;28;20445;-52
2022/01/14 12:22:03;;;;;;;14.23;13.67;;;17.70;96.30;;;;;;5028548;28;20492;-51
2022/01/14 12:24:51;;;;;;;15.20;14.30;;;17.70;96.00;;;;;;5033883;28;20452;-50
2022/01/14 12:27:24;;;;;;;15.77;14.97;;;17.70;95.90;;;;;;5025619;28;20581;-52
2022/01/14 12:29:52;;;;;;;14.47;13.83;;;17.60;95.70;;;;;;5041928;28;20460;-49
2022/01/14 12:32:31;;;;;;;15.00;14.30;;;17.70;95.60;;;;;;5053487;28;20444;-49
2022/01/14 12:35:02;;;;;;;15.53;14.80;;;17.60;95.40;;;;;;5053551;28;20452;-53
2022/01/14 12:37:32;;;;;;;14.80;14.20;;;17.70;95.30;;;;;;5050891;28;20950;-48
2022/01/14 12:40:04;;;;;;;15.90;15.13;;;18.00;96.00;;;;;;5033879;28;20488;-48
2022/01/14 12:42:31;;;;;;;14.87;14.07;;;19.20;93.60;;;;;;5033490;28;20448;-51
2022/01/14 12:44:59;;;;;;;14.50;13.80;;;19.60;91.30;;;;;;5033574;28;20449;-48
2022/01/14 12:47:31;;;;;;;14.77;14.10;;;19.70;89.40;;;;;;5034223;28;20504;-50
2022/01/14 12:50:03;;;;;;;13.93;13.20;;;20.10;87.40;;;;;;5053277;28;20495;-52
2022/01/14 12:52:38;;;;;;;16.37;15.67;;;20.90;81.80;;;;;;5052884;28;20451;-55
2022/01/14 12:55:06;;;;;;;16.13;15.27;;;21.50;76.80;;;;;;5053187;28;20448;-51
2022/01/14 12:57:32;;;;;;;16.17;15.37;;;22.00;71.30;;;;;;5050990;28;20463;-55